Time;durP1;ratioP1;P1;durP2;ratioP2;P2;SDS_P1;SDS_P2;PMS_P1;PMS_P2;Temp;Humidity;BMP_temperature;BMP_pressure;BME280_temperature;BME280_humidity;BME280_pressure;Samples;Min_cycle;Max_cycle;Signal;HPM_P1;HPM_P2
2023/11/06 00:02:55;;;;;;;3.67;1.10;;;11.30;99.90;;;;;;4852393;29;20454;-82
2023/11/06 00:06:02;;;;;;;8.90;2.07;;;11.30;99.90;;;;;;4805728;29;20473;-82
2023/11/06 00:08:46;;;;;;;4.87;1.60;;;11.30;99.90;;;;;;4828418;29;20473;-83
2023/11/06 00:15:40;;;;;;;2.90;1.50;;;11.30;1.00;;;;;;4836830;29;20435;-83
2023/11/06 00:22:06;;;;;;;9.27;2.00;;;11.40;99.90;;;;;;4818541;29;20445;-82
2023/11/06 00:25:10;;;;;;;10.60;1.90;;;11.40;99.90;;;;;;4857726;29;20471;-82
2023/11/06 00:32:20;;;;;;;4.80;1.47;;;11.40;1.00;;;;;;4971458;28;20432;-82
2023/11/06 00:38:25;;;;;;;7.60;1.60;;;11.40;33.30;;;;;;4950571;29;20536;-83
2023/11/06 00:44:31;;;;;;;9.47;2.00;;;11.40;99.90;;;;;;4976797;28;20432;-83
2023/11/06 00:50:06;;;;;;;7.63;1.80;;;11.40;99.90;;;;;;4980919;28;20432;-81
2023/11/06 00:52:57;;;;;;;;;;;;;;;;;;;;;
2023/11/06 00:56:07;;;;;;;10.17;1.47;;;11.40;99.90;;;;;;4989446;28;20482;-83
2023/11/06 00:59:01;;;;;;;6.43;1.63;;;11.40;99.90;;;;;;4958362;28;20467;-83
2023/11/06 01:01:58;;;;;;;4.40;1.20;;;11.40;99.90;;;;;;4960108;29;20437;-83
2023/11/06 01:08:56;;;;;;;;;;;;;;;;;;;;;
2023/11/06 01:11:45;;;;;;;;;;;;;;;;;;;;;
2023/11/06 01:14:15;;;;;;;6.73;1.73;;;11.40;99.90;;;;;;4929754;28;20475;-82
2023/11/06 01:16:41;;;;;;;8.40;1.57;;;11.40;99.90;;;;;;4988269;28;20440;-83
2023/11/06 01:19:08;;;;;;;3.47;1.60;;;11.40;1.00;;;;;;4988616;28;20548;-83
2023/11/06 01:21:34;;;;;;;7.80;1.40;;;11.40;1.00;;;;;;4970794;28;20184;-83
2023/11/06 01:23:59;;;;;;;9.40;1.57;;;11.40;1.00;;;;;;4980180;28;20451;-83
2023/11/06 01:26:28;;;;;;;6.37;1.53;;;11.40;99.90;;;;;;4980629;28;20475;-83
2023/11/06 01:29:02;;;;;;;11.97;3.00;;;11.40;99.90;;;;;;4976813;28;20213;-83
2023/11/06 01:31:31;;;;;;;5.10;1.53;;;11.40;99.90;;;;;;4984224;28;20450;-83
2023/11/06 01:33:57;;;;;;;13.60;1.93;;;11.40;99.90;;;;;;4968008;28;20476;-83
2023/11/06 01:36:25;;;;;;;4.80;1.50;;;11.40;99.90;;;;;;4981862;28;20444;-83
2023/11/06 01:38:51;;;;;;;4.87;2.00;;;11.40;99.90;;;;;;4982538;28;20216;-83
2023/11/06 01:41:28;;;;;;;3.03;1.43;;;11.40;98.00;;;;;;4986928;28;20505;-84
2023/11/06 01:43:54;;;;;;;6.17;1.43;;;11.40;99.90;;;;;;4970073;28;20203;-83
2023/11/06 01:46:20;;;;;;;7.73;1.90;;;11.30;1.00;;;;;;4982964;28;20468;-83
2023/11/06 01:48:57;;;;;;;7.70;1.70;;;11.30;99.90;;;;;;4979417;28;20259;-83
2023/11/06 01:51:31;;;;;;;3.30;1.30;;;11.30;99.90;;;;;;4987019;28;20451;-83
2023/11/06 01:53:56;;;;;;;5.40;1.33;;;11.20;99.90;;;;;;4987940;28;20447;-83
2023/11/06 01:56:23;;;;;;;4.43;1.97;;;11.20;1.00;;;;;;4981967;28;20922;-83
2023/11/06 01:58:49;;;;;;;4.70;1.27;;;11.10;1.00;;;;;;4967022;28;20475;-84
2023/11/06 02:01:15;;;;;;;5.77;2.47;;;11.10;1.00;;;;;;4960442;28;20476;-83
2023/11/06 02:03:42;;;;;;;4.87;1.50;;;11.10;23.60;;;;;;4983868;28;20439;-83
2023/11/06 02:06:11;;;;;;;5.87;1.83;;;11.10;99.90;;;;;;4985565;28;20486;-83
2023/11/06 02:08:44;;;;;;;3.43;1.50;;;11.00;99.90;;;;;;4986914;28;20503;-83
2023/11/06 02:11:11;;;;;;;8.40;2.07;;;11.00;99.90;;;;;;4982276;28;20472;-83
2023/11/06 02:13:36;;;;;;;3.57;1.37;;;11.00;99.90;;;;;;4983768;28;20444;-83
2023/11/06 02:16:03;;;;;;;10.63;2.37;;;11.00;99.90;;;;;;4980623;28;20985;-83
2023/11/06 02:18:32;;;;;;;6.40;1.97;;;11.00;99.90;;;;;;4966668;28;20784;-83
2023/11/06 02:21:28;;;;;;;3.37;1.40;;;11.00;99.90;;;;;;4968804;28;20786;-83
2023/11/06 02:23:54;;;;;;;8.10;1.67;;;11.00;99.90;;;;;;4986204;28;20448;-82
2023/11/06 02:26:20;;;;;;;3.83;1.77;;;11.00;99.90;;;;;;4966126;28;20454;-83
2023/11/06 02:28:53;;;;;;;8.63;1.83;;;10.90;81.40;;;;;;4982962;28;20464;-83
2023/11/06 02:31:23;;;;;;;7.30;1.70;;;10.90;99.90;;;;;;4990985;28;20273;-82
2023/11/06 02:33:48;;;;;;;3.87;1.40;;;10.90;99.90;;;;;;4983516;28;20467;-83
2023/11/06 02:36:14;;;;;;;5.07;1.47;;;10.90;99.90;;;;;;4990463;28;20448;-82
2023/11/06 02:38:40;;;;;;;4.43;1.63;;;10.90;99.90;;;;;;4993153;28;20227;-83
2023/11/06 02:41:08;;;;;;;9.10;2.23;;;10.90;99.90;;;;;;4989742;28;20197;-83
2023/11/06 02:43:35;;;;;;;5.93;1.70;;;10.90;99.90;;;;;;4973757;28;20447;-83
2023/11/06 02:46:01;;;;;;;6.20;1.50;;;10.90;99.90;;;;;;4984988;28;20469;-83
2023/11/06 02:48:31;;;;;;;5.73;1.53;;;10.90;99.90;;;;;;4979557;28;20483;-83
2023/11/06 02:50:59;;;;;;;4.10;1.30;;;10.90;99.90;;;;;;4987643;28;20710;-82
2023/11/06 02:53:25;;;;;;;9.70;2.03;;;10.90;99.90;;;;;;4992108;28;20506;-83
2023/11/06 02:55:51;;;;;;;5.13;1.37;;;10.90;99.90;;;;;;4987004;28;20512;-82
2023/11/06 02:58:16;;;;;;;4.70;1.50;;;10.80;99.90;;;;;;4984028;28;20465;-82
2023/11/06 03:00:42;;;;;;;8.07;2.07;;;10.80;99.90;;;;;;4990130;28;20459;-81
2023/11/06 03:03:08;;;;;;;5.30;1.70;;;10.80;99.90;;;;;;4972218;28;20295;-82
2023/11/06 03:05:33;;;;;;;7.30;1.40;;;10.80;99.90;;;;;;4979369;28;20304;-82
2023/11/06 03:07:59;;;;;;;6.17;1.70;;;10.80;99.90;;;;;;4968179;28;20224;-82
2023/11/06 03:10:25;;;;;;;6.03;2.03;;;10.80;99.90;;;;;;4987028;28;20280;-83
2023/11/06 03:12:51;;;;;;;5.57;1.53;;;10.80;99.90;;;;;;4988391;28;20444;-82
2023/11/06 03:15:16;;;;;;;5.50;1.50;;;10.80;99.90;;;;;;4970470;28;20177;-82
2023/11/06 03:17:42;;;;;;;11.57;1.90;;;10.80;99.90;;;;;;4970477;28;20196;-83
2023/11/06 03:20:10;;;;;;;4.00;1.47;;;10.80;99.90;;;;;;4984052;28;20181;-82
2023/11/06 03:22:37;;;;;;;6.53;1.50;;;10.80;99.90;;;;;;4969169;28;20208;-83
2023/11/06 03:25:04;;;;;;;3.90;1.33;;;10.80;99.90;;;;;;4987441;28;20922;-82
2023/11/06 03:27:30;;;;;;;3.10;1.60;;;10.80;34.60;;;;;;4966294;28;20476;-82
2023/11/06 03:29:55;;;;;;;7.00;1.83;;;10.80;60.40;;;;;;4980371;28;20504;-82
2023/11/06 03:32:21;;;;;;;4.20;1.43;;;10.70;1.00;;;;;;4984062;28;20193;-82
2023/11/06 03:34:46;;;;;;;4.10;1.60;;;10.70;1.00;;;;;;4984681;28;20204;-82
2023/11/06 03:37:12;;;;;;;15.33;1.63;;;10.70;1.00;;;;;;4984110;28;20245;-82
2023/11/06 03:39:40;;;;;;;4.13;1.73;;;10.70;55.60;;;;;;4979750;28;20248;-83
2023/11/06 03:42:06;;;;;;;4.87;1.70;;;10.70;1.00;;;;;;4985107;28;20184;-82
2023/11/06 03:44:31;;;;;;;5.80;1.50;;;10.70;1.00;;;;;;4969851;28;20455;-82
2023/11/06 03:46:57;;;;;;;6.83;1.27;;;10.60;13.40;;;;;;4985370;28;20483;-82
2023/11/06 03:49:23;;;;;;;11.83;1.87;;;10.60;8.30;;;;;;4981817;28;20201;-82
2023/11/06 03:51:48;;;;;;;5.47;1.77;;;10.60;62.60;;;;;;4977824;28;20193;-82
2023/11/06 03:54:14;;;;;;;2.33;1.20;;;10.60;71.50;;;;;;4967657;28;20185;-82
2023/11/06 03:56:39;;;;;;;7.47;1.67;;;10.60;99.90;;;;;;4976656;28;20217;-82
2023/11/06 03:59:05;;;;;;;9.73;1.97;;;10.60;90.20;;;;;;4986020;28;20302;-82
2023/11/06 04:01:38;;;;;;;6.70;1.50;;;10.60;54.30;;;;;;4967039;28;20267;-82
2023/11/06 04:04:04;;;;;;;8.43;1.87;;;10.60;1.00;;;;;;4964392;28;20240;-82
2023/11/06 04:06:30;;;;;;;9.17;1.60;;;10.60;1.00;;;;;;4959883;28;20468;-83
2023/11/06 04:08:56;;;;;;;4.70;1.83;;;10.60;1.00;;;;;;4962195;28;20467;-82
2023/11/06 04:11:22;;;;;;;5.90;1.83;;;10.60;1.00;;;;;;4978600;28;20436;-83
2023/11/06 04:13:47;;;;;;;3.27;1.40;;;10.60;1.00;;;;;;4983566;28;20436;-82
2023/11/06 04:16:14;;;;;;;7.83;2.10;;;10.60;16.90;;;;;;4970014;28;20251;-82
2023/11/06 04:18:40;;;;;;;6.67;1.80;;;10.60;99.90;;;;;;4968319;28;20464;-82
2023/11/06 04:21:06;;;;;;;9.40;2.50;;;10.60;99.90;;;;;;4968018;28;20440;-82
2023/11/06 04:23:32;;;;;;;9.80;1.90;;;10.70;99.90;;;;;;4981151;28;20437;-82
2023/11/06 04:25:57;;;;;;;8.00;2.63;;;10.70;99.90;;;;;;4973639;28;20504;-82
2023/11/06 04:28:23;;;;;;;4.90;2.00;;;10.70;99.90;;;;;;4967094;28;20207;-82
2023/11/06 04:30:48;;;;;;;6.40;1.50;;;10.70;99.90;;;;;;4978147;28;20241;-82
2023/11/06 04:33:14;;;;;;;13.57;2.70;;;10.70;99.90;;;;;;4968747;28;20569;-82
2023/11/06 04:35:40;;;;;;;11.23;2.70;;;10.70;99.90;;;;;;4963867;28;20195;-82
2023/11/06 04:38:05;;;;;;;10.03;2.33;;;10.70;99.90;;;;;;4985850;28;20204;-82
2023/11/06 04:40:31;;;;;;;8.90;2.37;;;10.60;99.90;;;;;;4962663;28;20181;-82
2023/11/06 04:42:57;;;;;;;6.70;2.33;;;10.60;99.90;;;;;;4976841;28;20219;-82
2023/11/06 04:45:23;;;;;;;10.97;2.33;;;10.60;99.90;;;;;;4983402;28;20511;-82
2023/11/06 04:47:48;;;;;;;5.80;2.13;;;10.50;99.90;;;;;;4971445;28;20365;-82
2023/11/06 04:50:14;;;;;;;10.63;2.83;;;10.50;99.90;;;;;;4966524;28;20188;-82
2023/11/06 04:52:40;;;;;;;8.53;2.20;;;10.50;99.90;;;;;;4973462;28;20193;-82
2023/11/06 04:55:06;;;;;;;15.00;3.07;;;10.40;99.90;;;;;;4968566;28;20192;-82
2023/11/06 04:57:31;;;;;;;8.97;2.27;;;10.40;99.90;;;;;;4985225;28;20471;-83
2023/11/06 04:59:57;;;;;;;9.80;1.90;;;10.40;99.90;;;;;;4965444;28;20440;-82
2023/11/06 05:02:26;;;;;;;9.67;2.50;;;10.40;99.90;;;;;;4983080;28;20611;-82
2023/11/06 05:04:51;;;;;;;12.47;2.47;;;10.40;99.90;;;;;;4982514;28;20216;-82
2023/11/06 05:07:17;;;;;;;23.10;3.30;;;10.50;99.90;;;;;;4980736;28;20508;-82
2023/11/06 05:09:43;;;;;;;6.03;1.73;;;10.50;99.90;;;;;;4981200;28;20196;-82
2023/11/06 05:12:08;;;;;;;17.93;3.60;;;10.50;99.90;;;;;;4968764;28;20191;-82
2023/11/06 05:14:34;;;;;;;9.33;2.67;;;10.50;99.90;;;;;;4982408;28;20176;-83
2023/11/06 05:16:59;;;;;;;17.67;2.93;;;10.50;99.90;;;;;;4967795;28;20192;-82
2023/11/06 05:19:25;;;;;;;7.43;2.63;;;10.60;99.90;;;;;;4984913;28;20215;-83
2023/11/06 05:21:50;;;;;;;13.93;3.10;;;10.60;99.90;;;;;;4980569;28;20200;-82
2023/11/06 05:24:16;;;;;;;18.00;4.00;;;10.70;66.90;;;;;;4966638;28;20236;-82
2023/11/06 05:26:41;;;;;;;14.70;2.53;;;10.70;67.30;;;;;;4978849;28;20217;-82
2023/11/06 05:29:07;;;;;;;14.70;3.10;;;10.70;6.00;;;;;;4983656;28;20229;-82
2023/11/06 05:31:33;;;;;;;11.70;2.73;;;10.80;20.30;;;;;;4982195;28;20213;-82
2023/11/06 05:33:59;;;;;;;11.60;2.70;;;10.80;1.00;;;;;;4965699;28;20448;-82
2023/11/06 05:36:25;;;;;;;22.47;3.20;;;10.80;1.00;;;;;;4986133;28;20256;-82
2023/11/06 05:38:51;;;;;;;10.13;2.57;;;10.80;1.00;;;;;;4966939;28;20215;-82
2023/11/06 05:41:16;;;;;;;7.70;1.97;;;10.80;1.00;;;;;;4983889;28;20522;-83
2023/11/06 05:43:42;;;;;;;14.33;4.07;;;10.80;1.00;;;;;;4985572;28;20448;-83
2023/11/06 05:46:07;;;;;;;9.23;2.77;;;10.80;1.00;;;;;;4961676;29;20232;-82
2023/11/06 05:48:33;;;;;;;8.40;2.47;;;10.80;1.00;;;;;;4984204;28;20212;-82
2023/11/06 05:50:59;;;;;;;16.10;3.70;;;10.80;1.00;;;;;;4965735;28;20204;-82
2023/11/06 05:53:26;;;;;;;12.23;2.30;;;10.80;1.00;;;;;;4980491;28;21847;-81
2023/11/06 05:55:51;;;;;;;7.17;2.20;;;10.90;1.00;;;;;;4979148;28;20231;-82
2023/11/06 05:58:17;;;;;;;13.60;2.63;;;10.90;99.90;;;;;;4966555;28;20472;-82
2023/11/06 06:00:42;;;;;;;9.83;2.30;;;10.90;99.90;;;;;;4982944;28;20199;-83
2023/11/06 06:03:08;;;;;;;12.70;2.40;;;10.90;99.90;;;;;;4985485;28;20192;-82
2023/11/06 06:05:34;;;;;;;9.20;2.73;;;10.80;99.90;;;;;;4982539;28;20221;-82
2023/11/06 06:07:59;;;;;;;16.97;4.27;;;10.80;99.90;;;;;;4968041;28;20560;-82
2023/11/06 06:10:25;;;;;;;10.40;3.07;;;10.70;99.90;;;;;;4980974;28;20204;-82
2023/11/06 06:12:51;;;;;;;13.63;2.67;;;10.70;99.90;;;;;;4973268;28;20189;-83
2023/11/06 06:15:17;;;;;;;16.20;2.73;;;10.60;99.90;;;;;;4984890;28;20271;-82
2023/11/06 06:17:42;;;;;;;9.57;2.40;;;10.60;99.90;;;;;;4985087;28;20204;-82
2023/11/06 06:20:12;;;;;;;11.67;3.23;;;10.50;99.90;;;;;;4963652;28;20468;-82
2023/11/06 06:22:41;;;;;;;13.50;2.13;;;10.50;99.90;;;;;;4971773;28;20188;-83
2023/11/06 06:25:08;;;;;;;14.33;2.83;;;10.50;99.90;;;;;;4985945;28;20530;-82
2023/11/06 06:27:37;;;;;;;5.43;2.00;;;10.40;99.90;;;;;;4965912;28;20555;-82
2023/11/06 06:30:06;;;;;;;9.33;2.20;;;10.40;1.00;;;;;;4969454;28;20468;-82
2023/11/06 06:32:31;;;;;;;16.50;2.37;;;10.40;1.00;;;;;;4974347;28;20436;-82
2023/11/06 06:34:57;;;;;;;7.73;2.37;;;10.40;1.00;;;;;;4966732;28;20443;-82
2023/11/06 06:37:23;;;;;;;11.30;2.13;;;10.40;99.90;;;;;;4983670;28;20296;-82
2023/11/06 06:39:48;;;;;;;14.20;3.20;;;10.40;99.90;;;;;;4970413;28;20475;-82
2023/11/06 06:42:16;;;;;;;13.73;2.93;;;10.40;99.90;;;;;;4969363;28;20185;-81
2023/11/06 06:44:41;;;;;;;8.27;1.97;;;10.40;99.90;;;;;;4979657;28;20192;-82
2023/11/06 06:47:08;;;;;;;11.43;2.80;;;10.50;99.90;;;;;;4977643;28;21017;-82
2023/11/06 06:49:39;;;;;;;7.47;2.23;;;10.50;99.90;;;;;;4980801;28;20197;-82
2023/11/06 06:52:05;;;;;;;8.30;2.70;;;10.60;99.90;;;;;;4962533;28;20530;-82
2023/11/06 06:54:31;;;;;;;6.90;2.10;;;10.60;1.00;;;;;;4985000;28;20471;-82
2023/11/06 06:56:56;;;;;;;7.17;2.00;;;10.70;1.00;;;;;;4986435;28;20471;-82
2023/11/06 06:59:22;;;;;;;9.70;3.30;;;10.90;99.90;;;;;;4969289;28;20460;-83
2023/11/06 07:01:47;;;;;;;12.60;3.47;;;11.00;99.90;;;;;;4977955;28;20189;-82
2023/11/06 07:04:13;;;;;;;10.97;2.10;;;11.20;1.00;;;;;;4982852;28;20199;-83
2023/11/06 07:06:38;;;;;;;12.97;3.37;;;11.40;1.00;;;;;;4963886;28;20671;-83
2023/11/06 07:09:04;;;;;;;11.30;2.17;;;11.50;1.00;;;;;;4976812;28;20236;-83
2023/11/06 07:11:30;;;;;;;10.80;2.40;;;11.50;1.00;;;;;;4960284;28;20200;-82
2023/11/06 07:13:55;;;;;;;9.73;2.30;;;11.50;1.00;;;;;;4977249;28;20192;-83
2023/11/06 07:16:21;;;;;;;8.80;2.17;;;11.60;1.00;;;;;;4964717;28;20200;-83
2023/11/06 07:18:47;;;;;;;20.30;2.90;;;11.50;99.90;;;;;;4976475;28;20465;-82
2023/11/06 07:21:12;;;;;;;9.13;2.67;;;11.50;99.90;;;;;;5021394;23;20243;-87
2023/11/06 07:23:39;;;;;;;8.90;1.87;;;11.70;99.90;;;;;;5014233;28;20227;-85
2023/11/06 07:26:04;;;;;;;9.20;2.00;;;11.80;1.00;;;;;;5000553;28;20286;-85
2023/11/06 07:28:31;;;;;;;8.80;1.73;;;12.40;99.90;;;;;;5021266;28;20467;-85
2023/11/06 07:30:57;;;;;;;8.03;2.27;;;13.40;99.90;;;;;;5009616;28;20210;-86
2023/11/06 07:33:23;;;;;;;10.27;2.20;;;15.20;1.00;;;;;;5015505;28;20438;-86
2023/11/06 07:35:48;;;;;;;6.17;2.07;;;16.70;1.00;;;;;;5018898;28;20191;-83
2023/11/06 07:38:13;;;;;;;5.70;1.73;;;18.20;99.90;;;;;;5000651;28;20207;-86
2023/11/06 07:40:39;;;;;;;8.30;1.93;;;19.30;99.90;;;;;;5012221;28;20340;-86
2023/11/06 07:43:05;;;;;;;5.23;1.73;;;20.30;99.90;;;;;;5013856;28;20188;-85
2023/11/06 07:45:30;;;;;;;13.60;3.07;;;21.20;99.90;;;;;;5015013;28;20561;-84
2023/11/06 07:48:01;;;;;;;13.97;2.60;;;21.80;99.90;;;;;;4988503;28;20180;-87
2023/11/06 07:50:28;;;;;;;6.63;1.97;;;22.40;99.90;;;;;;4987220;28;20207;-86
2023/11/06 07:52:55;;;;;;;10.27;2.33;;;22.80;99.90;;;;;;5010022;28;20442;-86
2023/11/06 07:55:21;;;;;;;10.07;2.10;;;23.00;99.90;;;;;;5010963;28;20442;-86
2023/11/06 07:57:46;;;;;;;7.60;2.43;;;23.10;99.90;;;;;;5013885;28;20452;-87
2023/11/06 08:00:13;;;;;;;8.27;2.00;;;23.50;99.90;;;;;;5009914;28;20235;-89
2023/11/06 08:02:39;;;;;;;8.80;2.07;;;23.80;99.90;;;;;;5009948;28;20194;-86
2023/11/06 08:05:04;;;;;;;6.17;2.43;;;24.10;99.90;;;;;;5008929;28;20437;-86
2023/11/06 08:07:30;;;;;;;8.57;1.87;;;24.40;99.90;;;;;;5010537;28;20539;-86
2023/11/06 08:09:55;;;;;;;9.87;2.20;;;24.90;99.90;;;;;;5000938;28;20215;-86
2023/11/06 08:12:21;;;;;;;12.23;2.67;;;25.30;99.90;;;;;;5006030;28;20187;-85
2023/11/06 08:14:46;;;;;;;5.73;1.50;;;25.20;99.90;;;;;;5006861;28;20204;-86
2023/11/06 08:17:13;;;;;;;4.60;1.70;;;25.50;99.90;;;;;;5013293;28;20569;-86
2023/11/06 08:19:40;;;;;;;5.73;1.93;;;26.00;99.90;;;;;;5015642;28;20219;-86
2023/11/06 08:22:08;;;;;;;8.20;2.17;;;26.30;99.90;;;;;;4996958;28;20468;-87
2023/11/06 08:24:34;;;;;;;6.07;1.90;;;26.40;99.90;;;;;;5010299;28;20476;-86
2023/11/06 08:27:00;;;;;;;6.60;1.77;;;26.70;99.90;;;;;;5005265;28;20501;-87
2023/11/06 08:29:25;;;;;;;5.27;1.70;;;26.90;99.90;;;;;;5008937;28;20435;-87
2023/11/06 08:31:51;;;;;;;6.03;2.50;;;27.20;99.90;;;;;;5014201;28;20273;-85
2023/11/06 08:34:16;;;;;;;9.23;2.40;;;27.10;99.90;;;;;;5009759;28;20185;-88
2023/11/06 08:36:44;;;;;;;9.10;2.30;;;26.90;99.90;;;;;;5014192;28;20208;-86
2023/11/06 08:39:10;;;;;;;6.00;1.97;;;25.70;99.90;;;;;;5016092;28;20180;-86
2023/11/06 08:41:35;;;;;;;5.90;2.03;;;24.20;99.90;;;;;;5016271;28;20454;-86
2023/11/06 08:44:01;;;;;;;6.30;1.97;;;23.00;99.90;;;;;;5001201;28;20214;-86
2023/11/06 08:46:26;;;;;;;6.60;2.00;;;21.80;99.90;;;;;;5011606;28;20214;-85
2023/11/06 08:48:52;;;;;;;9.83;2.37;;;20.60;99.90;;;;;;5017405;28;20180;-86
2023/11/06 08:51:18;;;;;;;9.33;3.40;;;19.70;99.90;;;;;;5019674;28;20273;-85
2023/11/06 08:53:44;;;;;;;4.90;1.90;;;19.10;99.90;;;;;;5018827;28;20178;-86
2023/11/06 08:56:10;;;;;;;7.97;2.70;;;18.40;99.90;;;;;;5018512;28;20191;-83
2023/11/06 08:58:38;;;;;;;7.27;1.80;;;17.60;99.90;;;;;;4999665;28;20446;-86
2023/11/06 09:01:06;;;;;;;4.23;1.57;;;17.20;99.90;;;;;;5014508;28;20444;-85
2023/11/06 09:03:32;;;;;;;7.80;2.13;;;17.20;99.90;;;;;;5009243;28;20892;-85
2023/11/06 09:06:00;;;;;;;5.37;2.17;;;18.20;99.90;;;;;;5005441;28;20483;-88
2023/11/06 09:08:25;;;;;;;10.27;2.60;;;20.60;99.90;;;;;;5004211;28;20430;-84
2023/11/06 09:10:51;;;;;;;7.73;2.10;;;21.60;99.90;;;;;;5001608;28;20456;-86
2023/11/06 09:13:16;;;;;;;8.60;2.10;;;22.00;99.90;;;;;;5014374;28;20183;-86
2023/11/06 09:15:42;;;;;;;12.93;2.40;;;22.00;99.90;;;;;;5009363;28;20210;-84
2023/11/06 09:18:07;;;;;;;9.77;2.20;;;21.30;99.90;;;;;;5009295;28;20697;-87
2023/11/06 09:20:33;;;;;;;7.50;2.20;;;21.50;99.90;;;;;;5006449;28;20216;-85
2023/11/06 09:23:00;;;;;;;7.43;2.60;;;23.60;99.90;;;;;;4993559;28;20192;-86
2023/11/06 09:25:26;;;;;;;5.63;1.93;;;25.30;99.90;;;;;;5002416;28;20467;-86
2023/11/06 09:27:52;;;;;;;9.63;2.27;;;26.20;99.90;;;;;;5002811;28;20477;-86
2023/11/06 09:30:17;;;;;;;11.33;2.77;;;24.30;99.90;;;;;;5003579;28;20641;-84
2023/11/06 09:32:43;;;;;;;7.50;1.80;;;22.40;99.90;;;;;;5014711;28;20179;-84
2023/11/06 09:35:09;;;;;;;8.77;2.10;;;21.20;99.90;;;;;;5016029;28;20179;-86
2023/11/06 09:37:34;;;;;;;6.80;1.80;;;20.60;99.90;;;;;;5018687;28;20183;-86
2023/11/06 09:40:04;;;;;;;8.63;2.50;;;20.00;99.90;;;;;;5018186;28;20207;-86
2023/11/06 09:42:29;;;;;;;8.47;2.10;;;19.50;99.90;;;;;;5015414;28;20191;-84
2023/11/06 09:44:55;;;;;;;4.63;1.50;;;19.30;99.90;;;;;;5018578;28;20434;-85
2023/11/06 09:47:21;;;;;;;9.13;2.40;;;19.20;99.90;;;;;;5016697;28;20219;-85
2023/11/06 09:50:00;;;;;;;6.47;1.83;;;19.10;99.90;;;;;;5021462;28;20297;-87
2023/11/06 09:52:27;;;;;;;6.40;1.83;;;19.00;99.90;;;;;;5018188;28;20429;-85
2023/11/06 09:54:54;;;;;;;14.63;2.40;;;19.20;99.90;;;;;;5019771;28;20436;-85
2023/11/06 09:57:21;;;;;;;5.03;1.60;;;19.50;99.90;;;;;;5021058;28;20482;-85
2023/11/06 09:59:47;;;;;;;8.90;2.10;;;19.40;99.90;;;;;;5000749;28;20577;-86
2023/11/06 10:02:13;;;;;;;4.27;1.50;;;19.40;99.90;;;;;;5012963;28;20482;-86
2023/11/06 10:04:38;;;;;;;13.53;1.83;;;19.20;99.90;;;;;;5009984;28;20236;-86
2023/11/06 10:07:04;;;;;;;7.17;2.20;;;18.70;99.90;;;;;;5018510;28;20211;-85
2023/11/06 10:09:30;;;;;;;8.67;2.40;;;18.20;99.90;;;;;;5018241;28;20721;-86
2023/11/06 10:12:16;;;;;;;10.23;1.80;;;17.80;99.90;;;;;;5016180;28;21037;-87
2023/11/06 10:14:41;;;;;;;6.77;1.70;;;17.50;99.90;;;;;;5011613;28;20172;-87
2023/11/06 10:17:07;;;;;;;6.10;1.40;;;17.20;99.90;;;;;;4993389;28;20438;-85
2023/11/06 10:19:34;;;;;;;11.83;1.67;;;17.00;99.90;;;;;;5006430;28;20607;-85
2023/11/06 10:22:14;;;;;;;6.60;1.70;;;16.90;99.90;;;;;;5013647;28;20187;-86
2023/11/06 10:24:49;;;;;;;8.17;1.67;;;16.90;99.90;;;;;;5011026;28;20441;-84
2023/11/06 10:27:25;;;;;;;9.00;2.53;;;16.80;99.90;;;;;;5018156;28;20464;-85
2023/11/06 10:30:10;;;;;;;5.87;1.67;;;16.80;99.90;;;;;;5022304;28;20851;-86
2023/11/06 10:32:36;;;;;;;3.87;1.23;;;16.80;99.90;;;;;;5015133;28;20923;-86
2023/11/06 10:35:15;;;;;;;3.83;1.30;;;16.80;99.90;;;;;;5015790;28;20434;-85
2023/11/06 10:37:46;;;;;;;7.13;1.60;;;16.80;99.90;;;;;;5018262;28;20230;-86
2023/11/06 10:40:13;;;;;;;5.73;1.50;;;17.10;99.90;;;;;;5014383;28;20469;-86
2023/11/06 10:42:43;;;;;;;3.57;1.30;;;17.40;99.90;;;;;;5017937;28;20513;-85
2023/11/06 10:45:14;;;;;;;11.17;1.80;;;17.90;99.90;;;;;;5017496;28;20883;-86
2023/11/06 10:47:47;;;;;;;3.77;1.20;;;18.90;99.90;;;;;;4999862;28;20664;-86
2023/11/06 10:50:21;;;;;;;6.10;1.40;;;18.90;99.90;;;;;;5003632;28;20448;-86
2023/11/06 10:52:59;;;;;;;4.60;1.50;;;19.80;99.90;;;;;;5016435;28;20476;-86
2023/11/06 10:55:25;;;;;;;6.30;1.50;;;19.30;99.90;;;;;;5013596;28;20476;-86
2023/11/06 10:57:52;;;;;;;2.43;1.20;;;19.60;99.90;;;;;;5010155;28;20437;-86
2023/11/06 11:00:20;;;;;;;4.60;1.30;;;20.20;99.90;;;;;;4999789;28;20522;-86
2023/11/06 11:02:50;;;;;;;4.40;1.17;;;20.90;99.90;;;;;;5013902;28;20450;-86
2023/11/06 11:05:23;;;;;;;8.20;1.43;;;21.60;99.90;;;;;;5015806;28;20806;-86
2023/11/06 11:07:50;;;;;;;4.23;1.03;;;20.90;99.90;;;;;;5014519;28;20434;-86
2023/11/06 11:10:18;;;;;;;6.47;1.20;;;20.00;99.90;;;;;;5016968;28;20461;-86
2023/11/06 11:12:55;;;;;;;2.80;1.23;;;19.40;99.90;;;;;;5012382;28;20960;-86
2023/11/06 11:15:26;;;;;;;3.83;1.33;;;18.90;99.90;;;;;;5016312;28;20398;-86
2023/11/06 11:17:58;;;;;;;5.63;1.50;;;19.70;99.90;;;;;;5015837;28;20414;-85
2023/11/06 11:20:25;;;;;;;8.13;1.17;;;21.30;99.90;;;;;;4997470;28;21022;-85
2023/11/06 11:23:18;;;;;;;4.90;1.17;;;22.00;99.90;;;;;;5015042;28;20421;-84
2023/11/06 11:25:57;;;;;;;2.37;1.00;;;22.80;99.90;;;;;;5007803;28;20553;-86
2023/11/06 11:28:24;;;;;;;3.00;1.17;;;23.40;99.90;;;;;;5010319;28;20434;-85
2023/11/06 11:30:50;;;;;;;2.10;1.00;;;23.90;99.90;;;;;;5014762;28;20961;-86
2023/11/06 11:34:05;;;;;;;6.00;1.00;;;24.20;99.90;;;;;;5014803;28;20415;-87
2023/11/06 11:36:30;;;;;;;4.20;1.30;;;24.30;99.90;;;;;;4988816;28;20280;-85
2023/11/06 11:38:56;;;;;;;3.33;1.17;;;24.50;99.90;;;;;;5014986;28;20510;-87
2023/11/06 11:41:22;;;;;;;4.30;1.20;;;24.50;99.90;;;;;;5011577;28;20208;-85
2023/11/06 11:43:49;;;;;;;4.30;1.10;;;24.60;99.90;;;;;;4998502;28;20807;-86
2023/11/06 11:46:33;;;;;;;5.13;1.40;;;23.60;99.90;;;;;;5014409;28;20497;-86
2023/11/06 11:48:59;;;;;;;3.57;1.10;;;22.80;99.90;;;;;;5015353;28;20416;-86
2023/11/06 11:51:47;;;;;;;2.93;0.83;;;22.50;99.90;;;;;;5003674;28;20442;-85
2023/11/06 11:54:30;;;;;;;4.50;1.50;;;21.70;99.90;;;;;;5017179;28;20175;-86
2023/11/06 11:57:02;;;;;;;4.07;1.60;;;20.80;99.90;;;;;;5009504;28;20438;-84
2023/11/06 11:59:29;;;;;;;4.90;1.13;;;20.00;99.90;;;;;;5012631;28;20954;-85
2023/11/06 12:01:55;;;;;;;4.43;1.20;;;19.40;99.90;;;;;;4998945;28;20438;-83
2023/11/06 12:04:22;;;;;;;3.20;0.90;;;19.10;99.90;;;;;;4997992;28;20438;-84
2023/11/06 12:07:07;;;;;;;3.13;0.90;;;19.20;99.90;;;;;;5014441;28;20508;-86
2023/11/06 12:09:47;;;;;;;1.93;0.87;;;19.80;99.90;;;;;;5015097;28;20450;-86
2023/11/06 12:12:24;;;;;;;4.80;1.13;;;19.90;99.90;;;;;;5015906;28;20461;-86
2023/11/06 12:14:51;;;;;;;3.20;1.10;;;20.00;99.90;;;;;;5018969;28;20413;-85
2023/11/06 12:17:25;;;;;;;2.27;0.70;;;19.80;99.90;;;;;;5017264;28;20442;-86
2023/11/06 12:19:50;;;;;;;2.03;0.97;;;20.20;99.90;;;;;;5009876;28;20454;-83
2023/11/06 12:22:16;;;;;;;5.40;1.10;;;20.90;99.90;;;;;;5015349;28;20505;-87
2023/11/06 12:24:50;;;;;;;3.00;1.00;;;20.70;99.90;;;;;;5015305;28;20179;-83
2023/11/06 12:27:16;;;;;;;4.10;0.80;;;20.80;99.90;;;;;;5014404;28;20203;-84
2023/11/06 12:29:43;;;;;;;1.93;0.90;;;20.80;99.90;;;;;;4998174;28;20529;-86
2023/11/06 12:32:19;;;;;;;3.40;1.40;;;21.40;99.90;;;;;;5002887;28;20513;-86
2023/11/06 12:34:44;;;;;;;5.33;0.80;;;21.90;99.90;;;;;;5002794;28;20274;-87
2023/11/06 12:37:10;;;;;;;5.70;0.90;;;22.00;99.90;;;;;;5016369;28;20466;-84
2023/11/06 12:39:38;;;;;;;2.37;0.93;;;22.30;99.90;;;;;;5014703;28;20693;-86
2023/11/06 12:42:06;;;;;;;4.73;1.20;;;22.00;99.90;;;;;;5014858;28;20564;-85
2023/11/06 12:44:37;;;;;;;3.67;1.13;;;21.50;99.90;;;;;;5015519;28;20449;-86
2023/11/06 12:47:04;;;;;;;2.80;0.90;;;21.00;99.90;;;;;;5017159;28;20462;-85
2023/11/06 12:49:47;;;;;;;2.83;0.70;;;21.00;99.90;;;;;;5016037;28;20496;-85
2023/11/06 12:52:17;;;;;;;5.60;0.83;;;20.80;99.90;;;;;;5012903;28;20422;-83
2023/11/06 12:54:44;;;;;;;3.83;0.97;;;20.40;99.90;;;;;;5015860;28;20438;-86
2023/11/06 12:57:10;;;;;;;6.67;1.00;;;19.90;99.90;;;;;;5015095;28;20945;-86
2023/11/06 12:59:35;;;;;;;4.43;0.80;;;20.10;99.90;;;;;;5015468;28;20446;-85
2023/11/06 13:02:02;;;;;;;5.57;1.43;;;20.40;99.90;;;;;;5013996;28;20760;-85
2023/11/06 13:04:30;;;;;;;3.30;0.97;;;20.50;99.90;;;;;;5014209;28;20187;-85
2023/11/06 13:06:56;;;;;;;1.77;0.70;;;20.30;99.90;;;;;;5013759;28;20472;-85
2023/11/06 13:09:23;;;;;;;1.80;0.80;;;20.10;99.90;;;;;;5006729;28;20434;-84
2023/11/06 13:11:49;;;;;;;2.70;0.70;;;19.80;99.90;;;;;;5014607;28;20440;-86
2023/11/06 13:14:14;;;;;;;2.67;0.80;;;19.40;99.90;;;;;;5014678;28;20422;-85
2023/11/06 13:16:40;;;;;;;2.40;1.10;;;19.00;99.90;;;;;;5013118;28;20503;-85
2023/11/06 13:19:05;;;;;;;4.03;0.97;;;19.30;99.90;;;;;;5006065;28;20721;-85
2023/11/06 13:21:32;;;;;;;2.53;0.70;;;18.90;99.90;;;;;;5040134;23;20262;-81
2023/11/06 13:23:58;;;;;;;6.43;1.13;;;19.40;99.90;;;;;;4999150;28;20187;-83
2023/11/06 13:26:23;;;;;;;6.23;1.30;;;19.70;99.90;;;;;;4992762;28;20480;-84